Time;durP1;ratioP1;P1;durP2;ratioP2;P2;SDS_P1;SDS_P2;PMS_P1;PMS_P2;Temp;Humidity;BMP_temperature;BMP_pressure;BME280_temperature;BME280_humidity;BME280_pressure;Samples;Min_cycle;Max_cycle;Signal;HPM_P1;HPM_P2
2024/03/27 00:01:29;;;;;;;5.07;1.10;;;;;;;;;;4986691;28;20086;-64
2024/03/27 00:03:54;;;;;;;3.40;1.00;;;;;;;;;;4983547;28;20822;-62
2024/03/27 00:06:19;;;;;;;4.40;1.33;;;;;;;;;;4984248;28;20053;-63
2024/03/27 00:08:45;;;;;;;4.20;1.30;;;;;;;;;;4980718;28;20121;-64
2024/03/27 00:11:10;;;;;;;4.85;1.00;;;;;;;;;;4968497;28;20064;-63
2024/03/27 00:13:36;;;;;;;4.03;1.00;;;;;;;;;;4972500;28;20113;-63
2024/03/27 00:16:01;;;;;;;3.67;1.10;;;;;;;;;;4980068;28;20031;-64
2024/03/27 00:18:26;;;;;;;4.07;1.20;;;;;;;;;;5001172;28;20042;-62
2024/03/27 00:20:51;;;;;;;4.45;1.10;;;;;;;;;;4991417;28;20533;-63
2024/03/27 00:23:17;;;;;;;3.93;1.20;;;;;;;;;;4978811;28;20483;-63
2024/03/27 00:25:42;;;;;;;4.22;1.00;;;;;;;;;;4971860;28;20051;-63
2024/03/27 00:28:07;;;;;;;3.67;1.27;;;;;;;;;;4969456;28;20042;-63
2024/03/27 00:30:34;;;;;;;3.65;1.10;;;;;;;;;;4984942;28;20022;-62
2024/03/27 00:33:01;;;;;;;4.60;1.42;;;;;;;;;;4970203;28;20027;-63
2024/03/27 00:35:28;;;;;;;4.25;1.10;;;;;;;;;;4983505;28;20018;-64
2024/03/27 00:37:53;;;;;;;3.22;1.10;;;;;;;;;;4975308;28;20031;-62
2024/03/27 00:40:20;;;;;;;3.60;1.20;;;;;;;;;;4964125;28;20110;-64
2024/03/27 00:42:46;;;;;;;3.80;1.10;;;;;;;;;;4970764;28;21005;-62
2024/03/27 00:45:13;;;;;;;5.47;1.38;;;;;;;;;;4973050;28;20144;-64
2024/03/27 00:47:39;;;;;;;3.53;1.10;;;;;;;;;;4986703;28;20022;-62
2024/03/27 00:50:04;;;;;;;4.20;1.30;;;;;;;;;;4972230;28;20039;-64
2024/03/27 00:52:30;;;;;;;4.33;1.03;;;;;;;;;;4952767;28;20097;-64
2024/03/27 00:54:55;;;;;;;4.47;1.10;;;;;;;;;;4953652;28;20047;-63
2024/03/27 00:57:20;;;;;;;3.78;1.17;;;;;;;;;;4972034;28;20623;-63
2024/03/27 00:59:46;;;;;;;5.22;1.10;;;;;;;;;;4972598;28;20027;-62
2024/03/27 01:02:11;;;;;;;3.33;1.10;;;;;;;;;;4982635;28;20030;-63
2024/03/27 01:04:36;;;;;;;5.43;1.17;;;;;;;;;;4971250;28;20122;-63
2024/03/27 01:07:02;;;;;;;5.07;1.38;;;;;;;;;;4971457;28;20027;-62
2024/03/27 01:09:27;;;;;;;4.47;1.25;;;;;;;;;;5017035;28;20013;-64
2024/03/27 01:11:52;;;;;;;4.03;1.02;;;;;;;;;;4965244;28;20023;-62
2024/03/27 01:14:18;;;;;;;4.20;1.17;;;;;;;;;;4953948;28;20028;-62
2024/03/27 01:16:44;;;;;;;4.07;1.25;;;;;;;;;;4955506;28;20041;-63
2024/03/27 01:19:09;;;;;;;4.90;1.23;;;;;;;;;;4970067;28;20062;-63
2024/03/27 01:21:35;;;;;;;5.45;1.40;;;;;;;;;;4972248;28;20046;-63
2024/03/27 01:24:00;;;;;;;4.25;1.02;;;;;;;;;;4971345;28;20099;-62
2024/03/27 01:26:25;;;;;;;3.72;1.02;;;;;;;;;;4960939;28;20031;-62
2024/03/27 01:28:50;;;;;;;4.78;1.30;;;;;;;;;;4952283;28;20031;-63
2024/03/27 01:31:15;;;;;;;4.83;1.30;;;;;;;;;;4956814;28;20508;-62
2024/03/27 01:33:41;;;;;;;4.07;1.20;;;;;;;;;;4969663;28;20019;-62
2024/03/27 01:36:06;;;;;;;5.10;1.17;;;;;;;;;;4981132;28;20029;-63
2024/03/27 01:38:31;;;;;;;4.60;1.40;;;;;;;;;;4964956;28;20035;-62
2024/03/27 01:40:56;;;;;;;4.88;1.30;;;;;;;;;;5028568;28;20462;-62
2024/03/27 01:43:21;;;;;;;4.15;1.33;;;;;;;;;;4970726;28;20019;-63
2024/03/27 01:45:47;;;;;;;3.70;1.20;;;;;;;;;;4958883;28;20035;-63
2024/03/27 01:48:12;;;;;;;6.77;1.47;;;;;;;;;;4971468;28;20544;-62
2024/03/27 01:50:37;;;;;;;4.75;1.13;;;;;;;;;;4971946;28;20081;-63
2024/03/27 01:53:03;;;;;;;6.50;1.30;;;;;;;;;;4991216;28;20023;-62
2024/03/27 01:55:28;;;;;;;3.92;1.20;;;;;;;;;;4993323;28;20019;-63
2024/03/27 01:57:54;;;;;;;4.20;1.50;;;;;;;;;;4974525;28;20163;-64
2024/03/27 02:00:20;;;;;;;5.82;1.27;;;;;;;;;;4953738;28;20060;-64
2024/03/27 02:02:46;;;;;;;3.50;1.08;;;;;;;;;;4977209;28;20490;-62
2024/03/27 02:05:11;;;;;;;5.13;1.30;;;;;;;;;;4971003;28;20030;-64
2024/03/27 02:07:38;;;;;;;5.07;1.17;;;;;;;;;;4979986;28;20028;-63
2024/03/27 02:10:03;;;;;;;4.55;1.25;;;;;;;;;;4972514;28;20031;-63
2024/03/27 02:12:29;;;;;;;4.30;1.20;;;;;;;;;;4962554;28;20097;-63
2024/03/27 02:14:54;;;;;;;4.93;1.23;;;;;;;;;;4955966;28;20463;-62
2024/03/27 02:17:19;;;;;;;4.60;1.13;;;;;;;;;;4974302;28;20483;-63
2024/03/27 02:19:44;;;;;;;4.90;1.30;;;;;;;;;;4972449;28;20043;-62
2024/03/27 02:22:09;;;;;;;4.20;1.10;;;;;;;;;;4968120;28;20029;-64
2024/03/27 02:24:37;;;;;;;4.95;1.50;;;;;;;;;;4978539;28;20023;-64
2024/03/27 02:27:04;;;;;;;4.15;1.30;;;;;;;;;;4988627;28;20018;-63
2024/03/27 02:29:29;;;;;;;4.13;1.20;;;;;;;;;;4985491;28;20045;-62
2024/03/27 02:31:54;;;;;;;4.27;1.10;;;;;;;;;;4957524;28;20375;-62
2024/03/27 02:34:19;;;;;;;5.32;1.20;;;;;;;;;;4967072;28;20445;-62
2024/03/27 02:36:44;;;;;;;3.72;1.17;;;;;;;;;;4988587;28;20022;-62
2024/03/27 02:39:10;;;;;;;3.35;1.13;;;;;;;;;;4953815;28;20039;-63
2024/03/27 02:41:35;;;;;;;4.80;1.20;;;;;;;;;;4970861;28;20022;-63
2024/03/27 02:44:00;;;;;;;5.38;1.38;;;;;;;;;;4990090;28;20062;-62
2024/03/27 02:46:25;;;;;;;3.83;1.30;;;;;;;;;;4978874;28;20084;-63
2024/03/27 02:48:50;;;;;;;3.63;1.07;;;;;;;;;;4971230;28;20027;-62
2024/03/27 02:51:15;;;;;;;4.97;1.52;;;;;;;;;;4977668;28;20620;-63
2024/03/27 02:53:41;;;;;;;6.32;1.27;;;;;;;;;;4977082;28;20050;-62
2024/03/27 02:56:06;;;;;;;3.80;1.17;;;;;;;;;;4971502;28;20030;-62
2024/03/27 02:58:31;;;;;;;4.73;1.27;;;;;;;;;;4970801;28;20046;-63
2024/03/27 03:00:56;;;;;;;4.53;1.25;;;;;;;;;;4970681;28;20103;-63
2024/03/27 03:03:22;;;;;;;3.43;1.20;;;;;;;;;;4970508;28;20050;-62
2024/03/27 03:05:47;;;;;;;4.20;1.10;;;;;;;;;;4968684;28;20031;-63
2024/03/27 03:08:12;;;;;;;4.70;1.40;;;;;;;;;;5007609;28;20090;-62
2024/03/27 03:10:37;;;;;;;4.80;1.10;;;;;;;;;;5021027;28;20021;-63
2024/03/27 03:13:02;;;;;;;3.80;1.10;;;;;;;;;;5071290;28;20028;-63
2024/03/27 03:15:28;;;;;;;5.20;1.42;;;;;;;;;;5070760;28;20027;-63
2024/03/27 03:17:53;;;;;;;5.93;1.43;;;;;;;;;;5071249;28;20381;-64
2024/03/27 03:20:18;;;;;;;4.85;1.45;;;;;;;;;;5058369;28;20104;-63
2024/03/27 03:22:43;;;;;;;4.57;1.20;;;;;;;;;;4977027;28;20042;-63
2024/03/27 03:25:08;;;;;;;4.38;1.48;;;;;;;;;;4968243;28;20172;-62
2024/03/27 03:27:34;;;;;;;5.57;1.48;;;;;;;;;;4969852;28;20378;-64
2024/03/27 03:30:03;;;;;;;4.77;1.40;;;;;;;;;;4970129;28;20058;-63
2024/03/27 03:32:29;;;;;;;6.40;1.38;;;;;;;;;;4969967;28;20045;-61
2024/03/27 03:34:54;;;;;;;9.75;1.60;;;;;;;;;;4971866;28;20117;-63
2024/03/27 03:37:19;;;;;;;5.53;1.42;;;;;;;;;;4975909;28;20586;-63
2024/03/27 03:39:45;;;;;;;4.20;1.30;;;;;;;;;;4977476;28;20088;-62
2024/03/27 03:42:10;;;;;;;5.70;1.53;;;;;;;;;;4969954;28;20098;-62
2024/03/27 03:44:35;;;;;;;4.25;1.10;;;;;;;;;;4966955;28;20037;-63
2024/03/27 03:47:00;;;;;;;4.28;1.40;;;;;;;;;;4975817;28;20031;-64
2024/03/27 03:49:25;;;;;;;4.57;1.47;;;;;;;;;;4991698;28;20114;-62
2024/03/27 03:51:51;;;;;;;5.15;1.20;;;;;;;;;;4988909;28;20084;-62
2024/03/27 03:54:16;;;;;;;4.95;1.30;;;;;;;;;;4969528;28;20023;-64
2024/03/27 03:56:41;;;;;;;4.38;1.40;;;;;;;;;;4959474;28;20414;-62
2024/03/27 03:59:06;;;;;;;4.00;1.20;;;;;;;;;;4955732;28;20062;-63
2024/03/27 04:01:31;;;;;;;4.63;1.33;;;;;;;;;;4983141;28;20018;-62
2024/03/27 04:03:56;;;;;;;3.43;1.23;;;;;;;;;;4967858;28;20077;-62
2024/03/27 04:06:22;;;;;;;5.37;1.40;;;;;;;;;;4971876;28;20464;-61
2024/03/27 04:08:47;;;;;;;5.28;1.48;;;;;;;;;;4970193;28;20030;-62
2024/03/27 04:11:12;;;;;;;4.10;1.33;;;;;;;;;;4971270;28;20475;-63
2024/03/27 04:13:37;;;;;;;5.25;1.30;;;;;;;;;;4970689;28;20034;-64
2024/03/27 04:16:02;;;;;;;4.68;1.45;;;;;;;;;;4956873;28;20030;-63
2024/03/27 04:18:29;;;;;;;4.00;1.55;;;;;;;;;;4980816;28;20584;-63
2024/03/27 04:20:54;;;;;;;5.03;1.60;;;;;;;;;;4972676;28;20037;-62
2024/03/27 04:23:19;;;;;;;4.63;1.42;;;;;;;;;;4971286;28;20027;-63
2024/03/27 04:25:48;;;;;;;5.03;1.37;;;;;;;;;;4971746;28;20589;-62
2024/03/27 04:28:14;;;;;;;5.25;1.50;;;;;;;;;;4972747;28;20113;-63
2024/03/27 04:30:39;;;;;;;4.68;1.50;;;;;;;;;;4972971;28;20054;-62
2024/03/27 04:33:04;;;;;;;5.30;1.50;;;;;;;;;;4980832;28;20011;-62
2024/03/27 04:35:29;;;;;;;5.87;1.60;;;;;;;;;;4965240;28;20084;-62
2024/03/27 04:37:54;;;;;;;6.55;1.40;;;;;;;;;;4975583;28;20431;-63
2024/03/27 04:40:19;;;;;;;4.32;1.40;;;;;;;;;;4972659;28;20507;-63
2024/03/27 04:42:45;;;;;;;4.13;1.45;;;;;;;;;;4972670;28;20023;-63
2024/03/27 04:45:10;;;;;;;6.50;1.50;;;;;;;;;;4968650;28;20034;-66
2024/03/27 04:47:35;;;;;;;6.88;1.67;;;;;;;;;;4984007;28;20417;-64
2024/03/27 04:50:01;;;;;;;4.15;1.40;;;;;;;;;;4981733;28;20083;-62
2024/03/27 04:52:26;;;;;;;3.92;1.30;;;;;;;;;;4984721;28;20035;-62
2024/03/27 04:54:52;;;;;;;4.60;1.40;;;;;;;;;;4955241;28;20027;-64
2024/03/27 04:57:17;;;;;;;4.90;1.40;;;;;;;;;;4958466;28;20027;-65
2024/03/27 04:59:42;;;;;;;4.15;1.30;;;;;;;;;;4958993;28;20495;-63
2024/03/27 05:02:07;;;;;;;6.13;1.48;;;;;;;;;;4994879;28;20032;-63
2024/03/27 05:04:32;;;;;;;5.50;1.83;;;;;;;;;;5057143;28;20038;-63
2024/03/27 05:06:58;;;;;;;4.30;1.45;;;;;;;;;;4995467;28;20450;-64
2024/03/27 05:09:23;;;;;;;4.40;1.37;;;;;;;;;;4992883;28;20027;-62
2024/03/27 05:11:48;;;;;;;4.63;1.30;;;;;;;;;;4988103;28;20861;-65
2024/03/27 05:14:13;;;;;;;8.35;2.05;;;;;;;;;;4983910;28;20033;-63
2024/03/27 05:16:38;;;;;;;4.60;1.52;;;;;;;;;;4963202;28;20026;-63
2024/03/27 05:19:03;;;;;;;4.95;1.60;;;;;;;;;;4973917;28;20038;-64
2024/03/27 05:21:29;;;;;;;5.10;1.40;;;;;;;;;;4982892;28;20019;-67
2024/03/27 05:23:54;;;;;;;6.20;1.50;;;;;;;;;;4988941;28;20038;-62
2024/03/27 05:26:19;;;;;;;5.40;1.73;;;;;;;;;;4980432;28;20024;-63
2024/03/27 05:28:44;;;;;;;5.03;1.50;;;;;;;;;;4970010;28;20114;-63
2024/03/27 05:31:09;;;;;;;7.33;1.70;;;;;;;;;;4976853;28;20462;-64
2024/03/27 05:33:34;;;;;;;6.03;1.90;;;;;;;;;;4978398;28;20081;-62
2024/03/27 05:36:00;;;;;;;4.30;1.30;;;;;;;;;;4973922;28;20027;-63
2024/03/27 05:38:26;;;;;;;5.13;1.73;;;;;;;;;;4976687;28;20057;-63
2024/03/27 05:40:51;;;;;;;5.70;1.85;;;;;;;;;;5004779;28;20394;-64
2024/03/27 05:43:18;;;;;;;4.70;1.77;;;;;;;;;;4977858;28;20027;-63
2024/03/27 05:45:44;;;;;;;6.35;1.58;;;;;;;;;;4978214;28;20026;-64
2024/03/27 05:48:09;;;;;;;4.45;1.60;;;;;;;;;;4968721;28;20039;-63
2024/03/27 05:50:34;;;;;;;5.30;1.60;;;;;;;;;;4973297;28;20083;-64
2024/03/27 05:52:59;;;;;;;5.22;1.50;;;;;;;;;;4977362;28;20039;-63
2024/03/27 05:55:24;;;;;;;6.90;1.55;;;;;;;;;;4979619;28;20510;-62
2024/03/27 05:57:49;;;;;;;6.15;1.90;;;;;;;;;;4977547;28;20085;-64
2024/03/27 06:00:15;;;;;;;6.05;1.50;;;;;;;;;;4971662;28;20038;-63
2024/03/27 06:02:40;;;;;;;3.88;1.45;;;;;;;;;;4980095;28;20423;-66
2024/03/27 06:05:05;;;;;;;4.43;1.50;;;;;;;;;;4971809;28;20031;-64
2024/03/27 06:07:30;;;;;;;5.70;1.70;;;;;;;;;;4992870;28;20450;-63
2024/03/27 06:09:56;;;;;;;4.85;1.63;;;;;;;;;;4975855;28;20019;-63
2024/03/27 06:12:21;;;;;;;4.72;1.65;;;;;;;;;;4975991;28;20019;-63
2024/03/27 06:14:46;;;;;;;5.10;1.63;;;;;;;;;;4992072;28;20028;-62
2024/03/27 06:17:11;;;;;;;6.20;1.67;;;;;;;;;;5005392;28;20026;-64
2024/03/27 06:19:36;;;;;;;6.28;1.73;;;;;;;;;;4984979;28;20056;-63
2024/03/27 06:22:01;;;;;;;4.78;1.58;;;;;;;;;;4964197;28;20035;-63
2024/03/27 06:24:26;;;;;;;4.80;1.60;;;;;;;;;;4970571;28;20042;-64
2024/03/27 06:26:51;;;;;;;5.22;1.40;;;;;;;;;;4979237;28;20466;-64
2024/03/27 06:29:17;;;;;;;3.58;1.33;;;;;;;;;;4990078;28;20026;-63
2024/03/27 06:31:42;;;;;;;4.90;1.42;;;;;;;;;;4976576;28;20027;-64
2024/03/27 06:34:07;;;;;;;5.07;1.42;;;;;;;;;;4980168;28;20438;-64
2024/03/27 06:36:32;;;;;;;5.22;1.70;;;;;;;;;;4990062;28;20026;-63
2024/03/27 06:38:57;;;;;;;4.57;1.60;;;;;;;;;;4990272;28;20030;-62
2024/03/27 06:41:22;;;;;;;6.20;1.70;;;;;;;;;;4977381;28;20725;-63
2024/03/27 06:43:48;;;;;;;5.25;1.55;;;;;;;;;;4978445;28;20022;-63
2024/03/27 06:46:13;;;;;;;6.00;1.60;;;;;;;;;;4985613;28;20034;-63
2024/03/27 06:48:51;;;;;;;3.90;1.30;;;;;;;;;;4975912;28;20057;-64
2024/03/27 06:51:17;;;;;;;5.72;1.55;;;;;;;;;;4990620;28;20018;-64
2024/03/27 06:53:43;;;;;;;4.57;1.60;;;;;;;;;;4977387;28;20030;-63
2024/03/27 06:56:08;;;;;;;4.53;1.70;;;;;;;;;;4963247;28;20026;-65
2024/03/27 06:58:33;;;;;;;5.35;1.60;;;;;;;;;;4975645;28;20034;-64
2024/03/27 07:00:58;;;;;;;5.65;1.60;;;;;;;;;;4968389;28;20045;-64
2024/03/27 07:03:24;;;;;;;4.90;1.38;;;;;;;;;;4969716;28;20057;-63
2024/03/27 07:05:49;;;;;;;5.13;1.80;;;;;;;;;;4969606;28;20061;-64
2024/03/27 07:08:15;;;;;;;4.53;1.60;;;;;;;;;;4977512;28;20043;-65
2024/03/27 07:10:40;;;;;;;6.03;1.63;;;;;;;;;;4978504;28;20101;-63
2024/03/27 07:13:05;;;;;;;4.30;1.43;;;;;;;;;;4970363;28;20023;-63
2024/03/27 07:15:31;;;;;;;5.13;1.50;;;;;;;;;;4969289;28;20035;-64
2024/03/27 07:17:57;;;;;;;3.92;1.40;;;;;;;;;;4971783;28;20425;-63
2024/03/27 07:20:24;;;;;;;6.60;1.60;;;;;;;;;;4978417;28;20043;-64
2024/03/27 07:22:49;;;;;;;5.05;1.50;;;;;;;;;;4971590;28;20034;-64
2024/03/27 07:25:14;;;;;;;4.07;1.35;;;;;;;;;;4972064;28;20034;-63
2024/03/27 07:27:39;;;;;;;7.20;1.80;;;;;;;;;;4978020;28;20439;-63
2024/03/27 07:30:06;;;;;;;5.63;1.70;;;;;;;;;;4978367;28;20096;-63
2024/03/27 07:32:32;;;;;;;4.00;1.40;;;;;;;;;;4973802;28;20023;-64
2024/03/27 07:34:57;;;;;;;3.88;1.60;;;;;;;;;;4972342;28;20474;-64
2024/03/27 07:37:22;;;;;;;5.72;1.52;;;;;;;;;;4975485;28;20033;-63
2024/03/27 07:39:47;;;;;;;4.80;1.53;;;;;;;;;;4979801;28;20487;-64
2024/03/27 07:42:13;;;;;;;4.63;1.43;;;;;;;;;;4971486;28;20038;-63
2024/03/27 07:44:39;;;;;;;4.32;1.35;;;;;;;;;;4973154;28;20034;-63
2024/03/27 07:47:04;;;;;;;5.22;1.50;;;;;;;;;;4967770;28;20061;-65
2024/03/27 07:49:29;;;;;;;4.80;1.47;;;;;;;;;;4970443;28;20102;-64
2024/03/27 07:51:54;;;;;;;5.93;1.58;;;;;;;;;;4968595;28;20033;-64
2024/03/27 07:54:19;;;;;;;5.55;1.42;;;;;;;;;;4978873;28;20010;-66
2024/03/27 07:56:44;;;;;;;3.97;1.33;;;;;;;;;;4975891;28;20031;-63
2024/03/27 07:59:10;;;;;;;6.77;1.70;;;;;;;;;;4993283;28;20543;-65
2024/03/27 08:01:37;;;;;;;5.32;1.48;;;;;;;;;;5083805;28;20021;-63
2024/03/27 08:04:02;;;;;;;4.95;1.50;;;;;;;;;;5074431;28;20480;-63
2024/03/27 08:06:27;;;;;;;5.60;1.40;;;;;;;;;;5061455;28;20031;-64
2024/03/27 08:08:52;;;;;;;5.82;1.60;;;;;;;;;;4978020;28;20152;-63
2024/03/27 08:11:18;;;;;;;5.30;1.80;;;;;;;;;;4988385;28;20033;-63
2024/03/27 08:13:43;;;;;;;6.35;1.30;;;;;;;;;;4988783;28;20501;-64
2024/03/27 08:16:09;;;;;;;5.67;1.20;;;;;;;;;;4989135;28;20038;-63
2024/03/27 08:18:41;;;;;;;5.57;1.73;;;;;;;;;;4978496;28;20032;-63
2024/03/27 08:21:06;;;;;;;5.93;1.52;;;;;;;;;;4987468;28;20031;-64
2024/03/27 08:23:31;;;;;;;4.83;1.30;;;;;;;;;;4989222;28;20022;-63
2024/03/27 08:25:56;;;;;;;4.90;1.40;;;;;;;;;;4989033;28;20038;-63
2024/03/27 08:28:21;;;;;;;4.33;1.40;;;;;;;;;;4980523;28;20384;-64
2024/03/27 08:30:47;;;;;;;4.30;1.50;;;;;;;;;;4984739;28;20055;-64
2024/03/27 08:33:12;;;;;;;4.32;1.40;;;;;;;;;;4989376;28;20115;-65
2024/03/27 08:35:37;;;;;;;4.90;1.50;;;;;;;;;;4988946;28;20010;-64
2024/03/27 08:38:03;;;;;;;4.55;1.58;;;;;;;;;;4982905;28;20046;-63
2024/03/27 08:40:29;;;;;;;5.35;1.63;;;;;;;;;;4982048;28;20022;-63
2024/03/27 08:42:54;;;;;;;5.28;1.40;;;;;;;;;;4988849;28;20019;-64
2024/03/27 08:45:19;;;;;;;4.97;1.60;;;;;;;;;;4990378;28;20018;-63
2024/03/27 08:47:44;;;;;;;5.88;1.40;;;;;;;;;;4989482;28;20030;-64
2024/03/27 08:50:13;;;;;;;5.17;1.50;;;;;;;;;;4987217;28;20070;-64
2024/03/27 08:52:38;;;;;;;4.57;1.40;;;;;;;;;;4986914;28;20087;-64
2024/03/27 08:55:03;;;;;;;6.40;1.60;;;;;;;;;;4986031;28;20240;-64
2024/03/27 08:57:28;;;;;;;6.67;1.43;;;;;;;;;;4987549;28;20062;-64
2024/03/27 08:59:53;;;;;;;4.78;1.38;;;;;;;;;;4998533;28;20486;-64
2024/03/27 09:02:18;;;;;;;4.70;1.48;;;;;;;;;;4973223;28;20042;-64
2024/03/27 09:04:47;;;;;;;4.68;1.50;;;;;;;;;;4972921;28;20035;-65
2024/03/27 09:07:12;;;;;;;5.88;1.48;;;;;;;;;;4974864;28;20021;-65
2024/03/27 09:09:37;;;;;;;8.00;1.60;;;;;;;;;;4984083;28;20026;-65
2024/03/27 09:12:03;;;;;;;5.18;1.58;;;;;;;;;;4985951;28;20477;-65
2024/03/27 09:14:28;;;;;;;4.83;1.63;;;;;;;;;;4984282;28;20076;-64
2024/03/27 09:16:53;;;;;;;4.60;1.48;;;;;;;;;;4992011;28;20458;-64
2024/03/27 09:19:18;;;;;;;5.17;1.33;;;;;;;;;;4992554;28;20086;-64
2024/03/27 09:21:44;;;;;;;4.72;1.60;;;;;;;;;;4990380;28;20879;-64
2024/03/27 09:24:09;;;;;;;5.88;1.67;;;;;;;;;;4982619;28;20015;-63
2024/03/27 09:26:34;;;;;;;6.00;1.73;;;;;;;;;;4992805;28;20070;-64
2024/03/27 09:29:00;;;;;;;4.20;1.55;;;;;;;;;;4993069;28;20053;-62
2024/03/27 09:31:25;;;;;;;6.00;1.90;;;;;;;;;;4992672;28;20026;-64
2024/03/27 09:33:50;;;;;;;8.47;1.47;;;;;;;;;;4968789;28;20088;-65
2024/03/27 09:36:16;;;;;;;7.53;1.80;;;;;;;;;;4984349;28;20019;-63
2024/03/27 09:38:42;;;;;;;5.05;1.38;;;;;;;;;;4977458;28;20033;-64
2024/03/27 09:41:08;;;;;;;4.10;1.70;;;;;;;;;;4979065;28;20061;-64
2024/03/27 09:43:33;;;;;;;5.20;1.67;;;;;;;;;;4991153;28;20022;-63
2024/03/27 09:45:59;;;;;;;6.57;1.80;;;;;;;;;;4989496;28;20120;-64
2024/03/27 09:48:25;;;;;;;5.97;1.70;;;;;;;;;;4992267;28;20049;-64
2024/03/27 09:50:51;;;;;;;6.07;1.70;;;;;;;;;;4981381;28;20057;-64
2024/03/27 09:53:16;;;;;;;5.93;1.60;;;;;;;;;;4974927;28;20023;-63
2024/03/27 09:55:41;;;;;;;6.13;1.73;;;;;;;;;;4969725;28;20042;-63
2024/03/27 09:58:07;;;;;;;6.18;1.88;;;;;;;;;;5014997;28;20105;-63
2024/03/27 10:00:33;;;;;;;4.53;1.60;;;;;;;;;;4992899;28;20089;-65
2024/03/27 10:02:59;;;;;;;5.80;1.80;;;;;;;;;;4987813;28;20031;-63
2024/03/27 10:05:25;;;;;;;5.32;1.70;;;;;;;;;;4990638;28;20119;-65
2024/03/27 10:07:50;;;;;;;6.68;1.65;;;;;;;;;;4973361;28;20023;-65
2024/03/27 10:10:16;;;;;;;5.70;1.80;;;;;;;;;;4964154;28;20087;-63
2024/03/27 10:12:42;;;;;;;4.50;1.55;;;;;;;;;;4971985;28;20150;-64
2024/03/27 10:15:07;;;;;;;6.13;2.10;;;;;;;;;;4982474;28;20155;-63
2024/03/27 10:17:32;;;;;;;5.93;1.80;;;;;;;;;;4990421;28;20037;-63
2024/03/27 10:19:57;;;;;;;5.30;1.77;;;;;;;;;;4990811;28;20457;-63
2024/03/27 10:22:23;;;;;;;4.80;1.67;;;;;;;;;;4984446;28;20030;-66
2024/03/27 10:24:48;;;;;;;6.77;2.03;;;;;;;;;;4978981;28;20026;-64
2024/03/27 10:27:13;;;;;;;8.40;1.90;;;;;;;;;;4989736;28;20843;-64
2024/03/27 10:29:38;;;;;;;5.85;1.77;;;;;;;;;;4990263;28;20509;-64
2024/03/27 10:32:03;;;;;;;6.47;1.83;;;;;;;;;;4987344;28;20450;-66
2024/03/27 10:34:29;;;;;;;5.17;1.60;;;;;;;;;;4978106;28;20042;-64
2024/03/27 10:36:56;;;;;;;6.10;2.10;;;;;;;;;;4986361;28;20832;-65
2024/03/27 10:39:23;;;;;;;4.75;1.63;;;;;;;;;;4953475;28;20118;-64
2024/03/27 10:41:50;;;;;;;7.10;1.90;;;;;;;;;;4956791;28;20035;-64
2024/03/27 10:44:17;;;;;;;5.45;1.70;;;;;;;;;;4978180;28;20105;-62
2024/03/27 10:46:44;;;;;;;6.35;1.80;;;;;;;;;;4984385;28;20129;-64
2024/03/27 10:49:10;;;;;;;6.47;2.03;;;;;;;;;;4990618;28;20449;-63
2024/03/27 10:51:35;;;;;;;;;;;;;;;;;;4979683;28;20060;-63
2024/03/27 10:54:01;;;;;;;5.03;1.80;;;;;;;;;;4979096;28;19918;-67
2024/03/27 10:56:28;;;;;;;6.97;2.05;;;;;;;;;;5049538;28;20016;-63
2024/03/27 10:58:54;;;;;;;5.82;1.90;;;;;;;;;;5079838;28;20020;-64
2024/03/27 11:01:22;;;;;;;6.78;2.15;;;;;;;;;;5091675;28;20048;-65
2024/03/27 11:03:49;;;;;;;6.20;2.03;;;;;;;;;;4970069;28;20050;-64
2024/03/27 11:06:14;;;;;;;5.47;1.85;;;;;;;;;;4993252;28;20075;-65
2024/03/27 11:08:42;;;;;;;5.10;2.03;;;;;;;;;;4992778;28;20031;-64
2024/03/27 11:11:11;;;;;;;6.25;2.53;;;;;;;;;;4991111;28;20424;-65
2024/03/27 11:13:37;;;;;;;5.13;2.15;;;;;;;;;;4979816;28;20027;-64
2024/03/27 11:16:09;;;;;;;7.57;2.20;;;;;;;;;;4969870;28;20030;-65
2024/03/27 11:18:34;;;;;;;5.03;1.98;;;;;;;;;;4992405;28;20063;-63
2024/03/27 11:21:00;;;;;;;6.67;2.30;;;;;;;;;;4993321;28;20023;-63
2024/03/27 11:23:30;;;;;;;6.07;2.40;;;;;;;;;;4983526;28;20037;-65
2024/03/27 11:25:55;;;;;;;5.55;2.30;;;;;;;;;;4972805;28;20084;-64
2024/03/27 11:28:20;;;;;;;7.75;2.22;;;;;;;;;;4972035;28;20030;-64
2024/03/27 11:30:46;;;;;;;5.68;2.10;;;;;;;;;;4972612;28;20502;-64
2024/03/27 11:33:12;;;;;;;4.97;2.20;;;;;;;;;;4977937;28;20018;-65
2024/03/27 11:35:38;;;;;;;7.25;2.20;;;;;;;;;;4982201;28;20572;-65
2024/03/27 11:38:03;;;;;;;6.68;2.30;;;;;;;;;;4989558;28;20429;-66
2024/03/27 11:40:28;;;;;;;6.82;2.22;;;;;;;;;;4989808;28;20018;-64
2024/03/27 11:42:53;;;;;;;9.37;2.20;;;;;;;;;;4970281;28;20034;-64
2024/03/27 11:45:19;;;;;;;8.57;2.40;;;;;;;;;;4972001;28;20022;-64
2024/03/27 11:47:45;;;;;;;7.63;2.50;;;;;;;;;;4989417;28;20422;-65
2024/03/27 11:50:10;;;;;;;6.22;2.53;;;;;;;;;;4988324;28;20022;-64
2024/03/27 11:52:35;;;;;;;7.32;2.60;;;;;;;;;;4995237;28;20031;-64
2024/03/27 11:55:00;;;;;;;8.48;2.85;;;;;;;;;;4980783;28;20112;-64
2024/03/27 11:57:28;;;;;;;6.68;2.55;;;;;;;;;;4989813;28;20486;-66
2024/03/27 12:00:03;;;;;;;7.90;2.67;;;;;;;;;;4990866;28;20031;-66
2024/03/27 12:02:28;;;;;;;6.55;1.98;;;;;;;;;;4984633;28;20023;-66
2024/03/27 12:04:53;;;;;;;6.53;2.33;;;;;;;;;;4981597;28;20029;-64
2024/03/27 12:07:18;;;;;;;5.87;2.03;;;;;;;;;;4989690;28;20030;-64
2024/03/27 12:09:45;;;;;;;9.87;2.67;;;;;;;;;;4990589;28;20023;-66
2024/03/27 12:12:10;;;;;;;7.45;2.53;;;;;;;;;;4981960;28;20028;-64
2024/03/27 12:14:36;;;;;;;6.35;2.33;;;;;;;;;;4975898;28;20039;-64
2024/03/27 12:17:11;;;;;;;7.10;2.63;;;;;;;;;;4971062;28;20027;-63
2024/03/27 12:19:36;;;;;;;6.63;2.33;;;;;;;;;;4984413;28;20027;-65
2024/03/27 12:22:01;;;;;;;5.70;2.07;;;;;;;;;;4990721;28;20022;-64
2024/03/27 12:24:27;;;;;;;5.80;2.33;;;;;;;;;;4990092;28;20015;-65
2024/03/27 12:26:53;;;;;;;7.47;2.57;;;;;;;;;;4984571;28;20034;-65
2024/03/27 12:29:18;;;;;;;7.97;2.40;;;;;;;;;;4981560;28;20022;-65
2024/03/27 12:31:48;;;;;;;6.17;2.40;;;;;;;;;;4993261;28;20038;-64
2024/03/27 12:34:13;;;;;;;7.53;2.60;;;;;;;;;;4995938;28;20018;-65
2024/03/27 12:36:39;;;;;;;9.23;2.73;;;;;;;;;;4978093;28;20029;-65
2024/03/27 12:39:04;;;;;;;8.93;2.30;;;;;;;;;;4985048;28;20039;-65
2024/03/27 12:41:29;;;;;;;6.17;2.50;;;;;;;;;;4996979;28;20434;-64
2024/03/27 12:43:54;;;;;;;6.43;2.37;;;;;;;;;;4988272;28;20053;-64
2024/03/27 12:46:20;;;;;;;7.80;2.58;;;;;;;;;;4976371;28;20432;-64
2024/03/27 12:48:46;;;;;;;;;;;;;;;;;;4986149;28;20566;-65
2024/03/27 12:51:12;;;;;;;6.65;2.40;;;;;;;;;;4993687;28;19905;-65
2024/03/27 12:53:37;;;;;;;6.07;2.35;;;;;;;;;;5052665;28;20113;-63
2024/03/27 12:56:02;;;;;;;6.15;2.40;;;;;;;;;;5062230;28;20039;-64
2024/03/27 12:58:27;;;;;;;6.77;2.53;;;;;;;;;;4982191;28;20483;-63
2024/03/27 13:00:54;;;;;;;7.63;2.40;;;;;;;;;;4983839;28;20039;-64
2024/03/27 13:03:19;;;;;;;;;;;;;;;;;;4988814;28;20083;-63
2024/03/27 13:05:44;;;;;;;5.45;2.20;;;;;;;;;;5000651;28;19910;-65
2024/03/27 13:08:09;;;;;;;6.47;2.20;;;;;;;;;;4997406;28;20056;-65
2024/03/27 13:10:36;;;;;;;5.28;2.03;;;;;;;;;;4987713;28;20035;-64
2024/03/27 13:13:01;;;;;;;5.22;2.28;;;;;;;;;;4980131;28;20420;-65
2024/03/27 13:15:26;;;;;;;5.03;2.28;;;;;;;;;;4984766;28;20156;-66
2024/03/27 13:17:51;;;;;;;7.90;2.27;;;;;;;;;;4975762;28;20023;-64
2024/03/27 13:20:17;;;;;;;7.43;2.10;;;;;;;;;;4990773;28;20031;-64
2024/03/27 13:22:42;;;;;;;6.53;2.23;;;;;;;;;;4991269;28;20038;-65
2024/03/27 13:25:07;;;;;;;8.20;2.42;;;;;;;;;;4991269;28;20022;-64
2024/03/27 13:27:33;;;;;;;5.50;2.10;;;;;;;;;;4979063;28;20027;-65
2024/03/27 13:29:59;;;;;;;6.10;2.13;;;;;;;;;;4986817;28;20420;-65
2024/03/27 13:32:29;;;;;;;7.75;2.47;;;;;;;;;;4990711;28;21015;-64
2024/03/27 13:34:54;;;;;;;6.10;2.30;;;;;;;;;;4991324;28;20026;-63
2024/03/27 13:37:19;;;;;;;5.35;2.15;;;;;;;;;;4982216;28;20090;-65
2024/03/27 13:39:44;;;;;;;5.78;2.08;;;;;;;;;;4986068;28;20053;-64
2024/03/27 13:42:09;;;;;;;5.70;2.27;;;;;;;;;;4990691;28;20470;-64
2024/03/27 13:44:34;;;;;;;7.40;2.20;;;;;;;;;;4980372;28;20031;-64
2024/03/27 13:47:00;;;;;;;8.60;2.28;;;;;;;;;;4973330;28;20482;-63
2024/03/27 13:49:26;;;;;;;5.78;2.30;;;;;;;;;;4977289;28;20553;-64
2024/03/27 13:51:51;;;;;;;5.20;2.13;;;;;;;;;;5024706;28;20059;-63
2024/03/27 13:54:16;;;;;;;6.25;2.05;;;;;;;;;;5073867;28;20070;-65
2024/03/27 13:56:41;;;;;;;9.23;2.42;;;;;;;;;;5011166;28;20106;-64
2024/03/27 13:59:07;;;;;;;5.38;2.00;;;;;;;;;;4980148;28;20030;-64
2024/03/27 14:01:32;;;;;;;7.00;2.50;;;;;;;;;;4983182;28;20112;-63
2024/03/27 14:03:57;;;;;;;6.07;2.13;;;;;;;;;;4991577;28;20061;-64
2024/03/27 14:06:24;;;;;;;5.20;2.20;;;;;;;;;;4984665;28;20029;-65
2024/03/27 14:08:49;;;;;;;7.13;2.58;;;;;;;;;;4981063;28;20427;-64
2024/03/27 14:11:14;;;;;;;6.55;2.03;;;;;;;;;;4990912;28;20069;-65
2024/03/27 14:13:39;;;;;;;6.22;2.00;;;;;;;;;;4989337;28;20091;-64
2024/03/27 14:16:04;;;;;;;6.93;2.50;;;;;;;;;;4985802;28;20014;-63
2024/03/27 14:18:30;;;;;;;9.63;2.28;;;;;;;;;;4977935;28;20483;-64
2024/03/27 14:20:55;;;;;;;6.30;2.38;;;;;;;;;;4967335;28;20056;-65
2024/03/27 14:23:20;;;;;;;5.68;2.70;;;;;;;;;;4969723;28;20015;-64
2024/03/27 14:25:48;;;;;;;8.00;2.28;;;;;;;;;;4969530;28;20031;-65
2024/03/27 14:28:14;;;;;;;7.80;2.40;;;;;;;;;;4980876;28;20031;-64
2024/03/27 14:30:39;;;;;;;6.63;2.00;;;;;;;;;;4990369;28;20025;-65
2024/03/27 14:33:04;;;;;;;8.53;2.63;;;;;;;;;;4988804;28;20551;-64